Time;durP1;ratioP1;P1;durP2;ratioP2;P2;SDS_P1;SDS_P2;PMS_P1;PMS_P2;Temp;Humidity;BMP_temperature;BMP_pressure;BME280_temperature;BME280_humidity;BME280_pressure;Samples;Min_cycle;Max_cycle;Signal;HPM_P1;HPM_P2
2022/08/20 00:01:15;;;;;;;24.42;18.50;;;21.20;99.90;;;;;;5114633;28;20132;-85
2022/08/20 00:03:41;;;;;;;26.05;18.02;;;21.10;99.90;;;;;;5115340;28;20115;-84
2022/08/20 00:06:21;;;;;;;25.88;19.48;;;21.10;99.90;;;;;;5122421;28;20042;-83
2022/08/20 00:08:47;;;;;;;25.58;18.13;;;21.10;99.90;;;;;;5126686;28;20039;-84
2022/08/20 00:11:16;;;;;;;27.13;19.38;;;21.10;99.90;;;;;;5119371;28;20056;-84
2022/08/20 00:13:47;;;;;;;30.05;18.95;;;21.10;99.90;;;;;;5118915;28;20122;-85
2022/08/20 00:16:15;;;;;;;29.92;20.27;;;21.10;99.90;;;;;;5113470;28;20028;-84
2022/08/20 00:18:42;;;;;;;31.35;19.77;;;21.10;99.90;;;;;;5112755;28;20027;-84
2022/08/20 00:21:13;;;;;;;29.40;19.55;;;21.10;99.90;;;;;;5110706;28;20057;-84
2022/08/20 00:23:41;;;;;;;27.65;19.52;;;21.10;99.90;;;;;;5112921;28;20038;-85
2022/08/20 00:26:09;;;;;;;26.98;19.15;;;21.10;99.90;;;;;;5110585;28;20032;-85
2022/08/20 00:28:34;;;;;;;28.95;19.85;;;21.10;99.90;;;;;;5110972;28;20446;-85
2022/08/20 00:31:03;;;;;;;32.70;20.95;;;21.10;99.90;;;;;;5111035;28;20024;-84
2022/08/20 00:33:30;;;;;;;31.70;19.77;;;21.10;99.90;;;;;;5112279;28;20028;-84
2022/08/20 00:35:56;;;;;;;31.48;20.05;;;21.10;99.90;;;;;;5112077;28;20032;-84
2022/08/20 00:38:25;;;;;;;31.23;21.25;;;21.10;99.90;;;;;;5112308;28;20073;-85
2022/08/20 00:40:56;;;;;;;33.00;21.90;;;21.10;99.90;;;;;;5110757;28;20024;-86
2022/08/20 00:43:37;;;;;;;31.88;22.10;;;21.10;99.90;;;;;;5111844;27;20027;-84
2022/08/20 00:46:16;;;;;;;30.65;19.67;;;21.10;99.90;;;;;;5111869;28;20028;-86
2022/08/20 00:48:46;;;;;;;28.95;20.35;;;21.10;99.90;;;;;;5112134;28;20035;-85
2022/08/20 00:51:26;;;;;;;25.73;18.58;;;21.10;99.90;;;;;;5111731;28;20024;-86
2022/08/20 00:53:55;;;;;;;32.22;20.25;;;21.00;99.90;;;;;;5111975;28;20031;-85
2022/08/20 00:56:21;;;;;;;27.13;19.38;;;21.00;99.90;;;;;;5110100;28;20031;-86
2022/08/20 00:58:48;;;;;;;31.00;20.80;;;21.00;99.90;;;;;;5112081;28;20055;-86
2022/08/20 01:01:14;;;;;;;30.50;20.27;;;21.00;99.90;;;;;;5111382;27;20027;-86
2022/08/20 01:03:41;;;;;;;30.08;19.35;;;21.00;99.90;;;;;;5110395;28;20030;-86
2022/08/20 01:06:10;;;;;;;27.02;19.50;;;21.00;99.90;;;;;;5111301;28;20502;-85
2022/08/20 01:08:36;;;;;;;30.33;20.35;;;21.00;99.90;;;;;;5110345;28;20546;-85
2022/08/20 01:11:08;;;;;;;28.27;19.45;;;21.10;99.90;;;;;;5110054;28;21081;-85
2022/08/20 01:13:36;;;;;;;28.83;19.17;;;21.00;99.90;;;;;;5110786;28;20525;-85
2022/08/20 01:16:06;;;;;;;27.90;19.75;;;21.10;99.90;;;;;;5110134;28;20031;-84
2022/08/20 01:18:32;;;;;;;30.38;20.38;;;21.10;99.90;;;;;;5111780;28;20023;-85
2022/08/20 01:21:00;;;;;;;30.00;17.98;;;21.00;99.90;;;;;;5110334;28;20386;-85
2022/08/20 01:23:52;;;;;;;24.23;17.48;;;21.00;99.90;;;;;;5110217;28;20032;-85
2022/08/20 01:26:23;;;;;;;27.85;18.55;;;21.00;99.90;;;;;;5109612;28;20497;-84
2022/08/20 01:28:55;;;;;;;24.77;18.23;;;21.00;99.90;;;;;;5111588;28;20085;-84
2022/08/20 01:31:24;;;;;;;23.63;16.73;;;21.00;99.90;;;;;;5111081;28;20038;-84
2022/08/20 01:33:51;;;;;;;25.48;17.40;;;21.00;99.90;;;;;;5110173;28;20035;-84
2022/08/20 01:36:22;;;;;;;23.83;17.35;;;21.00;99.90;;;;;;5110628;28;20673;-83
2022/08/20 01:38:47;;;;;;;27.75;19.35;;;21.00;99.90;;;;;;5110575;28;20509;-83
2022/08/20 01:41:34;;;;;;;26.88;17.95;;;21.00;99.90;;;;;;5109308;28;20020;-83
2022/08/20 01:43:59;;;;;;;26.52;17.30;;;20.90;99.90;;;;;;5111214;28;20386;-84
2022/08/20 01:46:28;;;;;;;24.25;16.90;;;21.00;99.90;;;;;;5110498;28;20035;-84
2022/08/20 01:48:55;;;;;;;27.45;18.27;;;20.90;99.90;;;;;;5109687;28;20039;-83
2022/08/20 01:51:27;;;;;;;25.38;16.75;;;20.90;99.90;;;;;;5110483;28;20032;-85
2022/08/20 01:53:55;;;;;;;25.75;17.67;;;20.90;99.90;;;;;;5115240;28;20027;-84
2022/08/20 01:56:25;;;;;;;26.73;18.13;;;20.90;99.90;;;;;;5114217;27;20065;-83
2022/08/20 01:58:53;;;;;;;25.45;18.58;;;20.90;99.90;;;;;;5114978;28;20032;-83
2022/08/20 02:01:36;;;;;;;25.58;18.52;;;20.90;99.90;;;;;;5113140;28;20034;-83
2022/08/20 02:04:04;;;;;;;22.42;16.98;;;21.00;99.90;;;;;;5115290;28;20027;-83
2022/08/20 02:06:32;;;;;;;25.83;17.75;;;21.00;99.90;;;;;;5112756;28;20042;-83
2022/08/20 02:08:59;;;;;;;30.10;19.23;;;21.00;99.90;;;;;;5113462;28;20491;-83
2022/08/20 02:11:27;;;;;;;25.10;17.83;;;21.00;99.90;;;;;;5113002;28;20059;-83
2022/08/20 02:13:53;;;;;;;23.92;17.25;;;20.90;99.90;;;;;;5114475;28;20050;-83
2022/08/20 02:16:25;;;;;;;26.63;18.85;;;21.00;99.90;;;;;;5113830;28;20466;-84
2022/08/20 02:18:53;;;;;;;22.92;18.20;;;20.90;99.90;;;;;;5114648;28;20086;-85
2022/08/20 02:21:20;;;;;;;26.42;18.02;;;20.90;99.90;;;;;;5114214;28;20031;-84
2022/08/20 02:23:46;;;;;;;26.38;19.33;;;20.90;99.90;;;;;;5114507;28;20019;-84
2022/08/20 02:26:12;;;;;;;24.88;17.23;;;20.90;99.90;;;;;;5112446;28;20472;-84
2022/08/20 02:28:37;;;;;;;25.38;17.77;;;20.90;99.90;;;;;;5113041;28;20035;-83
2022/08/20 02:31:07;;;;;;;24.73;17.23;;;20.90;99.90;;;;;;5114372;27;20024;-84
2022/08/20 02:33:33;;;;;;;26.08;18.25;;;20.90;99.90;;;;;;5114031;28;20039;-85
2022/08/20 02:35:59;;;;;;;28.83;19.05;;;20.90;99.90;;;;;;5114065;28;20084;-86
2022/08/20 02:38:24;;;;;;;27.25;19.27;;;20.90;99.90;;;;;;5113853;28;20465;-84
2022/08/20 02:40:50;;;;;;;34.88;19.25;;;20.90;99.90;;;;;;5113957;28;20766;-84
2022/08/20 02:43:19;;;;;;;25.83;18.50;;;20.90;99.90;;;;;;5114191;28;20020;-86
2022/08/20 02:45:45;;;;;;;24.02;17.45;;;20.80;99.90;;;;;;5112754;28;20069;-83
2022/08/20 02:48:19;;;;;;;26.08;18.55;;;20.90;99.90;;;;;;5114749;27;20538;-84
2022/08/20 02:50:47;;;;;;;25.98;19.38;;;20.90;99.90;;;;;;5114099;28;20059;-84
2022/08/20 02:53:14;;;;;;;23.67;16.52;;;20.90;99.90;;;;;;5112863;28;20031;-83
2022/08/20 02:55:40;;;;;;;28.27;18.80;;;20.90;99.90;;;;;;5112350;28;20031;-84
2022/08/20 02:58:05;;;;;;;31.35;19.55;;;20.90;99.90;;;;;;5114206;28;20035;-83
2022/08/20 03:00:32;;;;;;;27.98;18.17;;;20.90;99.90;;;;;;5112523;28;20028;-85
2022/08/20 03:02:58;;;;;;;27.25;18.90;;;20.90;99.90;;;;;;5111264;28;20151;-84
2022/08/20 03:05:23;;;;;;;29.52;19.40;;;20.90;99.90;;;;;;5113163;28;20024;-84
2022/08/20 03:07:55;;;;;;;27.38;18.00;;;20.90;99.90;;;;;;5113765;28;20392;-84
2022/08/20 03:10:29;;;;;;;25.23;17.13;;;20.90;99.90;;;;;;5113670;28;20040;-84
2022/08/20 03:12:55;;;;;;;25.65;18.02;;;20.90;99.90;;;;;;5114095;28;20035;-83
2022/08/20 03:15:21;;;;;;;24.20;16.58;;;20.90;99.90;;;;;;5111964;28;20422;-84
2022/08/20 03:17:46;;;;;;;27.70;18.27;;;20.90;99.90;;;;;;5113734;28;20533;-84
2022/08/20 03:20:13;;;;;;;26.42;17.90;;;20.90;99.90;;;;;;5112368;28;20036;-84
2022/08/20 03:22:39;;;;;;;25.60;18.63;;;20.90;99.90;;;;;;5113357;28;20119;-84
2022/08/20 03:25:05;;;;;;;30.85;19.13;;;20.90;99.90;;;;;;5113195;28;20118;-84
2022/08/20 03:27:31;;;;;;;25.00;17.75;;;20.90;99.90;;;;;;5114327;28;20085;-85
2022/08/20 03:29:57;;;;;;;26.52;18.08;;;20.90;99.90;;;;;;5124527;28;20028;-85
2022/08/20 03:32:22;;;;;;;27.52;20.08;;;20.80;99.90;;;;;;5129277;28;20027;-87
2022/08/20 03:34:48;;;;;;;26.83;18.63;;;20.80;99.90;;;;;;5119099;28;20494;-86
2022/08/20 03:37:13;;;;;;;31.38;20.30;;;20.70;99.90;;;;;;5112406;28;20024;-86
2022/08/20 03:39:39;;;;;;;29.48;19.15;;;20.70;99.90;;;;;;5112115;28;20073;-86
2022/08/20 03:42:05;;;;;;;27.83;19.40;;;20.70;99.90;;;;;;5112856;28;20462;-84
2022/08/20 03:44:31;;;;;;;30.05;19.48;;;20.70;99.90;;;;;;5112897;28;20035;-84
2022/08/20 03:46:57;;;;;;;29.23;19.75;;;20.60;99.90;;;;;;5112487;28;20028;-84
2022/08/20 03:49:23;;;;;;;29.52;19.15;;;20.60;99.90;;;;;;5111284;28;20041;-83
2022/08/20 03:51:49;;;;;;;30.60;19.52;;;20.70;99.90;;;;;;5112711;27;20020;-84
2022/08/20 03:54:15;;;;;;;29.30;18.88;;;20.60;99.90;;;;;;5112682;28;20473;-83
2022/08/20 03:56:40;;;;;;;27.23;19.35;;;20.70;99.90;;;;;;5110849;28;20026;-84
2022/08/20 03:59:07;;;;;;;34.35;20.58;;;20.70;99.90;;;;;;5111169;28;20042;-83
2022/08/20 04:01:32;;;;;;;30.63;18.30;;;20.70;99.90;;;;;;5110499;28;20545;-84
2022/08/20 04:03:58;;;;;;;26.52;19.00;;;20.70;99.90;;;;;;5112473;28;20028;-84
2022/08/20 04:06:24;;;;;;;26.80;18.52;;;20.70;99.90;;;;;;5111637;28;20081;-86
2022/08/20 04:08:50;;;;;;;30.35;19.13;;;20.70;99.90;;;;;;5112013;28;20047;-85
2022/08/20 04:11:15;;;;;;;29.65;19.85;;;20.70;99.90;;;;;;5111778;28;20026;-85
2022/08/20 04:13:41;;;;;;;26.55;19.30;;;20.70;99.90;;;;;;5110508;28;20036;-86
2022/08/20 04:16:07;;;;;;;28.75;19.33;;;20.70;99.90;;;;;;5111776;28;20036;-86
2022/08/20 04:18:35;;;;;;;34.10;21.80;;;20.70;99.90;;;;;;5112235;28;20587;-85
2022/08/20 04:21:02;;;;;;;27.42;19.63;;;20.70;99.90;;;;;;5111869;28;20454;-85
2022/08/20 04:23:28;;;;;;;28.90;19.60;;;20.70;99.90;;;;;;5110606;28;20039;-85
2022/08/20 04:25:54;;;;;;;29.00;20.23;;;20.70;99.90;;;;;;5111616;28;20055;-86
2022/08/20 04:28:25;;;;;;;28.45;19.58;;;20.60;99.90;;;;;;5112055;28;20470;-85
2022/08/20 04:30:52;;;;;;;30.50;20.35;;;20.60;99.90;;;;;;5111679;28;20088;-85
2022/08/20 04:33:19;;;;;;;32.65;20.75;;;20.70;99.90;;;;;;5110368;28;20031;-85
2022/08/20 04:35:44;;;;;;;30.48;20.27;;;20.70;99.90;;;;;;5111119;28;20599;-84
2022/08/20 04:38:14;;;;;;;29.90;20.85;;;20.60;99.90;;;;;;5110558;28;20110;-84
2022/08/20 04:40:59;;;;;;;29.33;21.88;;;20.60;99.90;;;;;;5110224;28;20035;-84
2022/08/20 04:43:32;;;;;;;29.52;19.42;;;20.70;99.90;;;;;;5110477;28;20430;-85
2022/08/20 04:46:00;;;;;;;31.23;20.40;;;20.70;99.90;;;;;;5110015;28;20031;-85
2022/08/20 04:48:27;;;;;;;28.15;19.15;;;20.70;99.90;;;;;;5110009;28;20019;-86
2022/08/20 04:50:54;;;;;;;26.15;18.02;;;20.70;99.90;;;;;;5109947;28;20034;-85
2022/08/20 04:53:23;;;;;;;33.92;20.33;;;20.70;99.90;;;;;;5111258;28;20026;-85
2022/08/20 04:55:50;;;;;;;25.73;17.55;;;20.80;99.90;;;;;;5110851;28;20153;-85
2022/08/20 04:58:26;;;;;;;28.02;19.40;;;20.80;99.90;;;;;;5111111;28;20115;-86
2022/08/20 05:00:54;;;;;;;24.50;17.77;;;20.80;99.90;;;;;;5111285;28;20508;-84
2022/08/20 05:03:20;;;;;;;26.02;18.85;;;20.80;99.90;;;;;;5115457;28;20035;-84
2022/08/20 05:05:46;;;;;;;28.65;18.75;;;20.80;99.90;;;;;;5114134;28;20028;-83
2022/08/20 05:08:14;;;;;;;26.65;17.95;;;20.80;99.90;;;;;;5112928;28;20077;-85
2022/08/20 05:10:40;;;;;;;30.83;19.35;;;20.90;99.90;;;;;;5110760;28;20478;-85
2022/08/20 05:13:07;;;;;;;25.13;17.98;;;20.80;99.90;;;;;;5111759;28;20046;-84
2022/08/20 05:15:33;;;;;;;29.15;19.63;;;20.90;99.90;;;;;;5110799;28;20423;-83
2022/08/20 05:18:04;;;;;;;29.17;19.58;;;20.90;99.90;;;;;;5111531;28;20032;-83
2022/08/20 05:20:32;;;;;;;25.85;18.50;;;20.90;99.90;;;;;;5110981;28;20020;-84
2022/08/20 05:22:59;;;;;;;27.58;19.05;;;20.90;99.90;;;;;;5109601;28;20027;-84
2022/08/20 05:25:28;;;;;;;26.50;18.85;;;20.90;99.90;;;;;;5109866;28;20441;-84
2022/08/20 05:28:08;;;;;;;30.20;19.42;;;21.00;99.90;;;;;;5109277;28;20640;-84
2022/08/20 05:30:34;;;;;;;25.85;18.02;;;20.90;99.90;;;;;;5110869;28;20114;-84
2022/08/20 05:33:02;;;;;;;28.60;19.23;;;20.90;99.90;;;;;;5110708;28;20492;-84
2022/08/20 05:35:28;;;;;;;28.55;20.75;;;21.00;99.90;;;;;;5108776;28;20035;-84
2022/08/20 05:37:54;;;;;;;27.42;18.83;;;21.00;99.90;;;;;;5110821;28;20115;-85
2022/08/20 05:40:21;;;;;;;26.00;19.70;;;21.00;99.90;;;;;;5110467;28;20043;-85
2022/08/20 05:42:47;;;;;;;29.48;20.33;;;21.00;99.90;;;;;;5110585;28;20019;-85
2022/08/20 05:45:12;;;;;;;28.05;19.38;;;21.00;99.90;;;;;;5109220;28;20039;-85
2022/08/20 05:47:39;;;;;;;30.98;19.83;;;21.00;99.90;;;;;;5110396;28;20024;-85
2022/08/20 05:50:06;;;;;;;29.58;20.30;;;21.00;99.90;;;;;;5109257;28;20385;-85
2022/08/20 05:52:32;;;;;;;28.70;19.92;;;21.00;99.90;;;;;;5110514;28;20034;-85
2022/08/20 05:54:58;;;;;;;31.05;21.38;;;21.00;99.90;;;;;;5111435;28;20039;-84
2022/08/20 05:57:23;;;;;;;28.35;19.58;;;21.10;99.90;;;;;;5108957;28;20038;-85
2022/08/20 05:59:48;;;;;;;28.98;20.08;;;21.00;99.90;;;;;;5109270;28;20023;-84
2022/08/20 06:04:58;;;;;;;32.00;21.60;;;21.00;99.90;;;;;;5110700;28;20504;-85
2022/08/20 06:07:24;;;;;;;27.73;18.15;;;21.00;99.90;;;;;;5108895;28;20106;-85
2022/08/20 06:09:49;;;;;;;27.25;18.27;;;21.00;99.90;;;;;;5109168;28;20024;-85
2022/08/20 06:12:16;;;;;;;29.30;19.23;;;21.00;99.90;;;;;;5110415;28;20027;-84
2022/08/20 06:14:42;;;;;;;26.63;19.02;;;21.00;99.90;;;;;;5109060;28;20031;-85
2022/08/20 06:17:15;;;;;;;25.83;19.30;;;20.90;99.90;;;;;;5109034;28;20040;-85
2022/08/20 06:19:42;;;;;;;26.05;18.88;;;21.00;99.90;;;;;;5110752;28;20039;-86
2022/08/20 06:22:08;;;;;;;25.73;18.75;;;20.90;99.90;;;;;;5108823;28;20051;-84
2022/08/20 06:24:33;;;;;;;28.02;18.25;;;20.90;99.90;;;;;;5110354;28;20027;-84
2022/08/20 06:27:01;;;;;;;22.35;16.88;;;20.90;99.90;;;;;;5110239;28;20059;-85
2022/08/20 06:29:27;;;;;;;27.33;17.83;;;20.90;99.90;;;;;;5110353;28;20035;-85
2022/08/20 06:31:53;;;;;;;23.60;17.27;;;20.90;99.90;;;;;;5110238;28;20062;-85
2022/08/20 06:34:19;;;;;;;21.63;16.33;;;20.80;99.90;;;;;;5110234;28;20032;-85
2022/08/20 06:36:46;;;;;;;24.75;15.88;;;20.80;99.90;;;;;;5110570;28;20040;-85
2022/08/20 06:39:12;;;;;;;23.48;17.45;;;20.80;99.90;;;;;;5114263;28;20032;-85
2022/08/20 06:41:38;;;;;;;25.65;16.40;;;20.80;99.90;;;;;;5114435;28;20031;-85
2022/08/20 06:44:06;;;;;;;22.38;15.63;;;20.90;99.90;;;;;;5113379;28;20028;-85
2022/08/20 06:46:32;;;;;;;18.55;14.80;;;20.80;99.90;;;;;;5113315;28;20122;-85
2022/08/20 06:48:58;;;;;;;18.55;15.55;;;20.80;99.90;;;;;;5115899;28;20564;-84
2022/08/20 06:51:23;;;;;;;18.98;14.90;;;20.90;99.90;;;;;;5118289;28;20055;-84
2022/08/20 06:53:49;;;;;;;20.70;15.95;;;20.90;99.90;;;;;;5126384;28;20062;-84
2022/08/20 06:56:15;;;;;;;24.77;14.35;;;20.90;99.90;;;;;;5126400;28;20034;-83
2022/08/20 06:58:42;;;;;;;21.58;15.07;;;21.00;99.90;;;;;;5117180;28;20575;-83
2022/08/20 07:01:09;;;;;;;19.77;14.77;;;21.00;99.90;;;;;;5112221;28;20238;-84
2022/08/20 07:03:36;;;;;;;18.70;14.60;;;21.00;99.90;;;;;;5113431;28;20034;-85
2022/08/20 07:06:02;;;;;;;17.42;13.93;;;21.10;99.90;;;;;;5111902;28;20020;-85
2022/08/20 07:08:28;;;;;;;19.98;14.93;;;21.10;99.90;;;;;;5113300;28;20035;-85
2022/08/20 07:10:53;;;;;;;21.95;15.05;;;21.10;99.90;;;;;;5113373;28;20558;-84
2022/08/20 07:13:19;;;;;;;21.35;14.95;;;21.20;99.90;;;;;;5113262;28;20031;-85
2022/08/20 07:15:44;;;;;;;21.27;16.35;;;21.20;99.90;;;;;;5112902;28;20055;-85
2022/08/20 07:18:11;;;;;;;22.35;15.73;;;21.20;99.90;;;;;;5113656;28;20032;-85
2022/08/20 07:20:39;;;;;;;23.88;17.67;;;21.30;99.90;;;;;;5113235;28;20077;-86
2022/08/20 07:23:05;;;;;;;21.98;16.95;;;21.40;99.90;;;;;;5113130;28;20020;-85
2022/08/20 07:25:32;;;;;;;26.50;18.20;;;21.40;99.90;;;;;;5112548;28;20081;-85
2022/08/20 07:28:05;;;;;;;23.83;17.25;;;21.40;99.90;;;;;;5113387;28;20562;-85
2022/08/20 07:33:15;;;;;;;22.00;17.27;;;21.30;99.90;;;;;;5112975;28;20097;-86
2022/08/20 07:35:41;;;;;;;27.88;18.48;;;21.30;99.90;;;;;;5111100;28;20036;-85
2022/08/20 07:38:22;;;;;;;23.05;17.65;;;21.30;99.90;;;;;;5112846;28;20027;-85
2022/08/20 07:40:48;;;;;;;19.20;15.35;;;21.40;99.90;;;;;;5112858;28;20032;-85
2022/08/20 07:43:15;;;;;;;20.38;15.07;;;21.40;99.90;;;;;;5112942;28;20092;-85
2022/08/20 07:45:40;;;;;;;23.88;15.93;;;21.50;99.90;;;;;;5111130;28;20119;-85
2022/08/20 07:48:08;;;;;;;22.05;16.73;;;21.50;99.90;;;;;;5112997;28;20100;-86
2022/08/20 07:50:34;;;;;;;19.83;16.20;;;21.60;99.90;;;;;;5111824;28;20028;-86
2022/08/20 07:53:00;;;;;;;21.30;17.23;;;21.60;99.90;;;;;;5113019;28;20032;-86
2022/08/20 07:55:26;;;;;;;21.75;16.23;;;21.60;99.90;;;;;;5111238;28;20119;-86
2022/08/20 07:57:52;;;;;;;20.63;15.52;;;21.60;99.90;;;;;;5113178;28;20738;-86
2022/08/20 08:00:20;;;;;;;20.10;15.88;;;21.60;99.90;;;;;;5113226;28;20054;-87
2022/08/20 08:02:45;;;;;;;25.90;17.23;;;21.60;99.90;;;;;;5113067;28;20027;-87
2022/08/20 08:05:11;;;;;;;21.83;16.80;;;21.60;99.90;;;;;;5111629;28;20458;-85
2022/08/20 08:07:38;;;;;;;19.25;15.63;;;21.60;99.90;;;;;;5111463;28;20027;-84
2022/08/20 08:10:06;;;;;;;19.98;15.73;;;21.60;99.90;;;;;;5114080;28;20119;-86
2022/08/20 08:12:36;;;;;;;18.60;15.30;;;21.50;99.90;;;;;;5115568;28;20481;-86
2022/08/20 08:15:05;;;;;;;24.75;15.95;;;21.50;99.90;;;;;;5115529;28;20039;-86
2022/08/20 08:17:32;;;;;;;20.25;15.13;;;21.50;99.90;;;;;;5114603;28;20026;-86
2022/08/20 08:19:58;;;;;;;20.25;15.02;;;21.50;99.90;;;;;;5114707;28;20103;-85
2022/08/20 08:22:24;;;;;;;20.25;15.88;;;21.50;99.90;;;;;;5114960;28;20071;-86
2022/08/20 08:24:50;;;;;;;18.75;14.65;;;21.50;99.90;;;;;;5115332;28;20055;-85
2022/08/20 08:27:17;;;;;;;19.58;14.85;;;21.50;99.90;;;;;;5114728;28;20121;-85
2022/08/20 08:29:44;;;;;;;20.40;14.80;;;21.50;99.90;;;;;;5115240;28;20027;-86
2022/08/20 08:32:09;;;;;;;19.05;14.85;;;21.50;99.90;;;;;;5119236;28;20028;-85
2022/08/20 08:34:36;;;;;;;18.33;13.57;;;21.50;99.90;;;;;;5117674;28;20027;-85
2022/08/20 08:37:02;;;;;;;18.60;13.75;;;21.50;99.90;;;;;;5121462;28;20026;-86
2022/08/20 08:39:29;;;;;;;19.40;13.45;;;21.40;99.90;;;;;;5118879;28;20046;-84
2022/08/20 08:41:56;;;;;;;18.90;14.88;;;21.40;99.90;;;;;;5117435;28;20110;-85
2022/08/20 08:44:28;;;;;;;19.20;14.30;;;21.40;99.90;;;;;;5114813;28;20023;-85
2022/08/20 08:46:57;;;;;;;18.40;13.63;;;21.40;99.90;;;;;;5116346;28;20028;-86
2022/08/20 08:49:27;;;;;;;19.52;15.48;;;21.40;99.90;;;;;;5115539;28;20063;-85
2022/08/20 08:52:00;;;;;;;17.75;13.20;;;21.40;99.90;;;;;;5110778;28;20039;-85
2022/08/20 08:54:28;;;;;;;17.55;14.38;;;21.50;99.90;;;;;;5112004;28;20423;-84
2022/08/20 08:56:54;;;;;;;18.13;14.10;;;21.50;99.90;;;;;;5109900;28;20069;-87
2022/08/20 08:59:21;;;;;;;19.52;13.63;;;21.50;99.90;;;;;;5110274;28;20494;-85
2022/08/20 09:01:51;;;;;;;18.25;15.10;;;21.50;99.90;;;;;;5111345;28;20530;-85
2022/08/20 09:04:18;;;;;;;19.23;14.43;;;21.50;99.90;;;;;;5111758;28;20019;-86
2022/08/20 09:06:43;;;;;;;18.38;14.93;;;21.40;99.90;;;;;;5110316;28;20038;-86
2022/08/20 09:09:23;;;;;;;18.38;13.93;;;21.40;99.90;;;;;;5110735;28;20023;-86
2022/08/20 09:11:52;;;;;;;18.92;14.45;;;21.40;99.90;;;;;;5109707;28;20024;-86
2022/08/20 09:14:19;;;;;;;20.50;15.50;;;21.50;99.90;;;;;;5110165;28;20038;-86
2022/08/20 09:16:45;;;;;;;17.33;13.68;;;21.50;99.90;;;;;;5111099;28;20469;-85
2022/08/20 09:19:11;;;;;;;19.88;15.23;;;21.60;99.90;;;;;;5110374;28;20080;-86
2022/08/20 09:21:36;;;;;;;21.02;15.00;;;21.60;99.90;;;;;;5109704;28;20114;-86
2022/08/20 09:24:03;;;;;;;20.92;15.10;;;21.70;99.90;;;;;;5110200;28;20031;-86
2022/08/20 09:26:29;;;;;;;18.25;14.10;;;21.70;99.90;;;;;;5110930;28;20019;-86
2022/08/20 09:28:55;;;;;;;21.48;14.95;;;21.80;99.90;;;;;;5111470;28;20042;-85
2022/08/20 09:31:22;;;;;;;17.30;14.57;;;21.80;99.90;;;;;;5111262;28;20050;-85
2022/08/20 09:33:48;;;;;;;20.63;14.73;;;21.90;99.90;;;;;;5111884;28;20118;-85
2022/08/20 09:36:14;;;;;;;24.15;15.55;;;21.90;99.90;;;;;;5111365;28;20055;-86
2022/08/20 09:38:39;;;;;;;16.83;13.90;;;22.00;99.90;;;;;;5112844;28;20102;-85
2022/08/20 09:41:05;;;;;;;18.83;14.38;;;22.00;99.90;;;;;;5110749;28;20031;-85
2022/08/20 09:43:30;;;;;;;21.05;14.15;;;22.00;99.90;;;;;;5111540;28;20530;-85
2022/08/20 09:45:56;;;;;;;16.75;13.25;;;22.10;99.90;;;;;;5111711;28;20042;-85
2022/08/20 09:48:21;;;;;;;16.00;13.15;;;22.10;99.90;;;;;;5112844;28;20024;-85
2022/08/20 09:50:48;;;;;;;19.52;14.48;;;22.10;99.90;;;;;;5111585;28;20740;-85
2022/08/20 09:53:14;;;;;;;17.08;13.90;;;22.10;99.90;;;;;;5112861;28;20088;-85
2022/08/20 09:55:44;;;;;;;17.23;13.63;;;22.20;99.90;;;;;;5113707;28;20645;-84
2022/08/20 09:58:35;;;;;;;18.92;15.35;;;22.20;99.90;;;;;;5113094;28;20019;-85
2022/08/20 10:01:07;;;;;;;16.38;13.35;;;22.30;99.90;;;;;;5116016;28;20385;-84
2022/08/20 10:03:32;;;;;;;18.63;14.93;;;22.40;99.90;;;;;;5115123;28;20027;-84
2022/08/20 10:05:58;;;;;;;17.00;14.75;;;22.40;99.90;;;;;;5113309;28;20032;-85
2022/08/20 10:08:24;;;;;;;19.20;15.05;;;22.40;99.90;;;;;;5112102;28;20022;-85
2022/08/20 10:10:49;;;;;;;16.95;13.55;;;22.40;99.90;;;;;;5112102;28;20030;-85
2022/08/20 10:13:15;;;;;;;15.40;13.73;;;22.40;99.90;;;;;;5114554;28;20026;-86
2022/08/20 10:15:40;;;;;;;19.77;15.43;;;22.50;99.90;;;;;;5116631;28;20039;-86
2022/08/20 10:18:06;;;;;;;18.83;13.65;;;22.50;99.90;;;;;;5130780;28;20060;-86
2022/08/20 10:20:33;;;;;;;17.30;14.73;;;22.50;99.90;;;;;;5130183;28;20057;-85
2022/08/20 10:22:59;;;;;;;22.45;15.93;;;22.50;99.90;;;;;;5117464;28;20480;-86
2022/08/20 10:25:24;;;;;;;18.50;15.02;;;22.60;99.90;;;;;;5114531;28;20032;-86
2022/08/20 10:27:50;;;;;;;18.65;14.82;;;22.60;99.90;;;;;;5113932;28;20403;-88
2022/08/20 10:30:15;;;;;;;20.42;16.42;;;22.60;99.90;;;;;;5114591;28;20028;-86
2022/08/20 10:32:41;;;;;;;20.75;14.73;;;22.60;99.90;;;;;;5114554;28;20039;-86
2022/08/20 10:35:08;;;;;;;20.65;16.98;;;22.60;99.90;;;;;;5113043;28;20038;-86
2022/08/20 10:37:34;;;;;;;21.27;16.75;;;22.60;99.90;;;;;;5113934;28;20575;-85
2022/08/20 10:39:59;;;;;;;23.75;16.52;;;22.60;99.90;;;;;;5114798;28;20027;-87
2022/08/20 10:42:25;;;;;;;20.63;16.42;;;22.60;99.90;;;;;;5112733;28;20031;-86
2022/08/20 10:44:50;;;;;;;21.27;16.15;;;22.60;99.90;;;;;;5114898;28;20031;-86
2022/08/20 10:47:21;;;;;;;20.40;16.05;;;22.70;99.90;;;;;;5112208;28;20023;-86
2022/08/20 10:49:48;;;;;;;20.15;16.73;;;22.70;99.90;;;;;;5114223;28;20377;-86
2022/08/20 10:52:13;;;;;;;22.52;17.67;;;22.70;99.90;;;;;;5112862;28;20516;-86
2022/08/20 10:54:41;;;;;;;22.27;16.35;;;22.70;99.90;;;;;;5113027;28;20027;-85
2022/08/20 10:57:18;;;;;;;20.40;16.25;;;22.70;99.90;;;;;;5113395;28;20031;-85
2022/08/20 10:59:45;;;;;;;22.98;17.58;;;22.70;99.90;;;;;;5114244;28;20028;-84
2022/08/20 11:02:12;;;;;;;23.45;17.80;;;22.70;99.90;;;;;;5112463;28;20114;-85
2022/08/20 11:04:39;;;;;;;22.27;17.75;;;22.70;99.90;;;;;;5113952;28;20111;-85
2022/08/20 11:07:24;;;;;;;22.63;18.13;;;22.70;99.90;;;;;;5112101;28;20118;-86
2022/08/20 11:09:50;;;;;;;26.85;18.02;;;22.70;99.90;;;;;;5114228;28;20066;-87
2022/08/20 11:12:18;;;;;;;23.88;18.60;;;22.70;99.90;;;;;;5113287;28;20027;-86
2022/08/20 11:14:43;;;;;;;28.40;19.20;;;22.80;99.90;;;;;;5113908;28;20036;-85
2022/08/20 11:17:10;;;;;;;23.30;18.17;;;22.80;99.90;;;;;;5113090;28;20020;-85
2022/08/20 11:19:40;;;;;;;22.58;18.70;;;22.80;99.90;;;;;;5113978;28;20102;-86
2022/08/20 11:22:06;;;;;;;25.73;19.17;;;22.90;99.90;;;;;;5112291;28;20447;-85
2022/08/20 11:24:31;;;;;;;20.42;17.33;;;22.90;99.90;;;;;;5112724;28;20032;-85
2022/08/20 11:26:57;;;;;;;22.92;18.40;;;22.90;99.90;;;;;;5111949;28;20489;-84
2022/08/20 11:29:23;;;;;;;23.45;19.17;;;22.90;99.90;;;;;;5112172;28;20088;-85
2022/08/20 11:31:49;;;;;;;21.50;17.67;;;22.90;99.90;;;;;;5113162;28;20024;-85
2022/08/20 11:34:15;;;;;;;24.65;19.48;;;23.00;99.90;;;;;;5113661;28;20374;-84
2022/08/20 11:36:41;;;;;;;22.23;17.15;;;23.00;99.90;;;;;;5113233;28;20429;-85
2022/08/20 11:39:07;;;;;;;25.30;19.38;;;23.00;99.90;;;;;;5112228;28;20061;-86
2022/08/20 11:41:32;;;;;;;26.67;19.95;;;23.10;99.90;;;;;;5111850;28;20062;-86
2022/08/20 11:43:58;;;;;;;28.02;20.55;;;23.10;99.90;;;;;;5112197;28;20409;-86
2022/08/20 11:46:23;;;;;;;26.45;19.58;;;23.10;99.90;;;;;;5111440;28;20028;-85
2022/08/20 11:48:49;;;;;;;24.90;19.35;;;23.20;99.90;;;;;;5113199;28;20023;-85
2022/08/20 11:51:14;;;;;;;23.27;19.42;;;23.20;99.90;;;;;;5111773;28;20027;-87
2022/08/20 11:53:40;;;;;;;22.70;18.35;;;23.30;99.90;;;;;;5111362;28;20015;-86
2022/08/20 11:56:05;;;;;;;23.27;19.52;;;23.30;99.90;;;;;;5112533;28;20099;-86
2022/08/20 11:58:32;;;;;;;22.25;18.15;;;23.40;99.90;;;;;;5113166;28;20062;-87
2022/08/20 12:00:58;;;;;;;24.83;20.33;;;23.50;99.90;;;;;;5112705;28;20481;-86
2022/08/20 12:03:23;;;;;;;28.27;20.02;;;23.50;99.90;;;;;;5112740;28;20035;-86
2022/08/20 12:05:49;;;;;;;28.23;20.33;;;23.50;99.90;;;;;;5112198;28;20105;-86
2022/08/20 12:08:16;;;;;;;24.17;18.95;;;23.60;99.90;;;;;;5112716;28;20023;-86
2022/08/20 12:10:41;;;;;;;27.48;20.50;;;23.60;99.90;;;;;;5112260;28;20027;-85
2022/08/20 12:13:07;;;;;;;26.75;20.55;;;23.70;99.90;;;;;;5112930;28;20042;-84
2022/08/20 12:15:36;;;;;;;23.45;19.63;;;23.80;99.90;;;;;;5112254;28;20023;-85
2022/08/20 12:18:06;;;;;;;25.33;19.42;;;23.80;99.90;;;;;;5112723;28;20410;-86
2022/08/20 12:20:32;;;;;;;24.33;19.73;;;23.90;99.90;;;;;;5111111;28;20115;-85
2022/08/20 12:22:57;;;;;;;25.45;20.08;;;24.00;99.90;;;;;;5111180;28;20114;-85
2022/08/20 12:25:24;;;;;;;22.52;19.05;;;24.00;99.90;;;;;;5112303;28;20419;-85
2022/08/20 12:27:50;;;;;;;20.38;17.17;;;24.10;99.90;;;;;;5110959;28;20032;-85
2022/08/20 12:30:19;;;;;;;23.30;18.60;;;24.10;99.90;;;;;;5110998;28;20023;-85
2022/08/20 12:32:45;;;;;;;22.17;17.58;;;24.00;99.90;;;;;;5111197;28;20028;-87
2022/08/20 12:35:12;;;;;;;21.33;16.80;;;24.00;99.90;;;;;;5110533;28;20342;-85